Jack C. Davis Observatory, Carson City, Nevada Weather observations

Data are for observation ending at time listed.
 Day   Time    Ave.   Ave.  Ave.  Vector   Max.   Stn.    Total    Solar   Ave.  
  of    of     Air    Rel.  Wind   Wind    Wind   Baro.  Precip.   Rad.    Soil  
Year   Day     Temp.  Hum.  Speed  Dir.    Gust   Pres.                    Temp. 
2026   (PST)    F      %     mph   deg.    mph     mb.     in.     W/m2     F   
------------------------------------------------------------------------------
 129    5:40   52.6    61    0.2   254      1.5   850.0    0.00      87    999.0
 129    5:50   54.3    62    1.0   284      2.6   850.0    0.00     120    999.0
 129    6:00   54.8    57    2.3   113      3.4   850.1    0.00     151    999.0
 129    6:10   53.9    53    1.8    63      3.9   850.2    0.00     182    999.0
 129    6:20   56.3    49    0.7    46      1.5   850.2    0.00     216    999.0
 129    6:30   57.7    48    0.4    63      1.3   850.3    0.00     249    999.0
 129    6:40   58.9    47    1.2    89      3.0   850.3    0.00     283    999.0
 129    6:50   58.2    47    1.2    92      3.4   850.4    0.00     318    999.0
 129    7:00   60.5    44    0.7    62      2.1   850.4    0.00     353    999.0
 129    7:10   60.4    45    2.1   103      4.1   850.4    0.00     388    999.0
 129    7:20   59.4    47    2.9   104      4.7   850.4    0.00     422    999.0
 129    7:30   60.2    47    2.2    98      4.2   850.4    0.00     456    999.0
 129    7:40   61.9    45    2.8   129      4.5   850.4    0.00     490    999.0
 129    7:50   61.8    44    2.3    89      3.9   850.4    0.00     523    999.0
 129    8:00   64.0    41    1.2    95      2.6   850.4    0.00     556    999.0
 129    8:10   65.7    39    1.9    76      3.7   850.4    0.00     589    999.0
 129    8:20   66.6    36    2.1    36      6.3   850.4    0.00     621    999.0
 129    8:30   67.4    28    3.8   336      8.3   850.3    0.00     653    999.0
 129    8:40   68.4    28    3.1   340      9.6   850.2    0.00     682    999.0
 129    8:50   68.6    26    3.6   329      8.0   850.3    0.00     710    999.0
 129    9:00   69.7    25    2.6   343      6.6   850.3    0.00     738    999.0
 129    9:10   70.1    24    2.8   324      7.1   850.3    0.00     766    999.0
 129    9:20   70.4    23    2.4    27      6.9   850.3    0.00     791    999.0
 129    9:30   70.8    23    3.7   324      8.0   850.2    0.00     815    999.0
 129    9:40   70.4    22    3.4    38      7.5   850.2    0.00     837    999.0
 129    9:50   71.5    21    2.0    88      7.2   850.3    0.00     859    999.0
 129   10:00   72.5    20    2.9   112      6.4   850.2    0.00     880    999.0
 129   10:10   73.1    20    1.9   170      4.7   850.1    0.00     899    999.0
 129   10:20   73.5    16    2.5    34      7.0   850.1    0.00     919    999.0
 129   10:30   73.4    17    4.2   112      7.7   850.1    0.00     934    999.0
 129   10:40   74.0    17    5.0   138     10.5   850.0    0.00     949    999.0
 129   10:50   74.0    17    4.6   111      9.6   849.9    0.00     961    999.0
 129   11:00   73.8    16    4.2    53     10.7   849.8    0.00     972    999.0
 129   11:10   73.5    16    4.0    52      8.0   849.7    0.00     980    999.0
 129   11:20   74.5    17    4.1   108     16.4   849.6    0.00     990    999.0
 129   11:30   74.3    17    5.9    90     12.4   849.6    0.00     997    999.0
 129   11:40   74.5    16    3.7   113      9.6   849.5    0.00    1002    999.0
 129   11:50   75.8    16    1.7   254      5.1   849.4    0.00    1006    999.0
 129   12:00   76.3    15    4.3    88      9.2   849.2    0.00    1008    999.0
 129   12:10   75.6    15    3.5   129      7.6   849.1    0.00    1010    999.0
 129   12:20   76.6    14    4.0   136      9.5   849.0    0.00    1008    999.0
 129   12:30   76.7    14    3.2   126     10.0   848.9    0.00    1005    999.0
 129   12:40   76.9    14    5.7    28     12.2   848.8    0.00     997    999.0
 129   12:50   77.1    13    2.7    24      7.1   848.8    0.00     991    999.0
 129   13:00   77.6    13    2.4    21      5.4   848.6    0.00     985    999.0
 129   13:10   79.1    13    3.1    85     10.3   848.5    0.00     975    999.0
 129   13:20   77.3    13    3.7    97     11.0   848.5    0.00     962    999.0
 129   13:30   78.8    14    4.3   322     12.9   848.4    0.00     948    999.0
 129   13:40   79.3    13    4.9   121     12.6   848.3    0.00     934    999.0
 129   13:50   78.4    13    6.1   123     10.3   848.2    0.00     917    999.0
 129   14:00   78.7    13    4.2    49      9.4   848.1    0.00     899    999.0
 129   14:10   78.3    13    4.8   104      9.1   848.1    0.00     878    999.0
 129   14:20   80.4    13    2.0   191      6.1   848.1    0.00     859    999.0
 129   14:30   80.8    13    3.6    33      7.9   847.9    0.00     836    999.0
 129   14:40   79.8    13    3.6    36      8.9   847.8    0.00     814    999.0
 129   14:50   79.7    14    4.3   330      9.2   847.7    0.00     789    999.0
 129   15:00   80.1    13    3.0   282      7.3   847.5    0.00     764    999.0
 129   15:10   81.2    13    3.2   232      6.5   847.4    0.00     738    999.0
 129   15:20   80.1    14    4.9   296      9.7   847.4    0.00     700    999.0
 129   15:30   79.7    14    4.1   279      8.7   847.3    0.00     684    999.0
 129   15:40   80.3    14    4.8   280      9.2   847.2    0.00     651    999.0
 129   15:50   80.7    13    2.8   296      8.6   847.2    0.00     620    999.0
 129   16:00   82.0    13    1.9   324      4.8   847.2    0.00     590    999.0
 129   16:10   82.1    13    2.7   295      6.7   847.1    0.00     559    999.0
 129   16:20   81.1    13    2.3   330      7.2   847.0    0.00     523    999.0
 129   16:30   81.7    12    1.2    55      3.7   847.0    0.00     489    999.0
 129   16:40   81.5    11    2.5   106      6.5   847.0    0.00     451    999.0
 129   16:50   80.0    11    2.7    72      5.3   846.9    0.00     402    999.0
 129   17:00   81.5    11    1.3    21      4.4   847.0    0.00     393    999.0
 129   17:10   81.2    13    4.7   201      9.3   846.9    0.00     352    999.0
 129   17:20   79.8    13    3.1   348      5.8   846.9    0.00     315    999.0
 129   17:30   80.3    14    1.7   282      4.0   846.9    0.00     262    999.0
 129   17:40   78.3    16    3.5   267      5.0   846.9    0.00     240    999.0
 129   17:50   76.0    18    4.0   258      6.8   846.8    0.00     199    999.0
 129   18:00   73.9    18    2.9   228      7.2   846.9    0.00     107    999.0
 129   18:10   72.3    18    3.6   249      7.1   846.9    0.00      33    999.0
 129   18:20   69.2    21    5.5   267      9.1   846.9    0.00      26    999.0
 129   18:30   68.7    20    5.9   262      9.0   846.9    0.00      20    999.0
 129   18:40   66.4    23    7.1   262      9.1   847.0    0.00      15    999.0
 129   18:50   65.9    22    7.3   265     10.0   847.1    0.00      13    999.0
 129   19:00   65.1    22    7.1   264      9.3   847.1    0.00      10    999.0
 129   19:10   64.1    22    6.9   266      9.3   847.2    0.00       3    999.0
 129   19:20   64.0    21    7.0   260      9.6   847.2    0.00       1    999.0
 129   19:30   64.0    20    6.1   266      9.3   847.3    0.00       0    999.0
 129   19:40   63.7    20    6.1   266      9.3   847.4    0.00       0    999.0
 129   19:50   63.4    20    7.0   258      9.1   847.6    0.00       0    999.0
 129   20:00   63.4    19    6.4   265      9.3   847.6    0.00       0    999.0
 129   20:10   64.9    17    6.7   258      8.8   847.8    0.00       0    999.0
 129   20:20   63.2    19    6.5   272     10.4   847.9    0.00       0    999.0
 129   20:30   62.5    20    7.0   265     10.2   848.0    0.00       0    999.0
 129   20:40   63.4    18    7.1   262     10.7   848.1    0.00       0    999.0
 129   20:50   63.6    18    6.9   260      9.5   848.2    0.00       0    999.0
 129   21:00   61.5    20    7.5   260      9.9   848.2    0.00       0    999.0
 129   21:10   61.6    20    6.8   264      8.9   848.2    0.00       0    999.0
 129   21:20   60.8    21    7.3   266     10.1   848.3    0.00       0    999.0
 129   21:30   60.6    22    6.2   272      9.1   848.4    0.00       0    999.0
 129   21:40   60.0    22    6.9   267      8.6   848.4    0.00       0    999.0
 129   21:50   59.8    22    6.5   276      8.5   848.4    0.00       0    999.0
 129   22:00   58.6    24    6.4   273      9.1   848.4    0.00       0    999.0
 129   22:10   58.8    23    6.4   270      8.2   848.4    0.00       0    999.0
 129   22:20   58.8    24    5.9   272      7.7   848.4    0.00       0    999.0
 129   22:30   58.1    24    5.8   272      7.7   848.4    0.00       0    999.0
 129   22:40   58.7    23    4.6   280      6.8   848.5    0.00       0    999.0
 129   22:50   58.9    23    4.0   281      5.9   848.6    0.00       0    999.0
 129   23:00   58.0    24    4.8   274      6.7   848.5    0.00       0    999.0
 129   23:10   57.6    25    4.6   273      6.4   848.6    0.00       0    999.0
 129   23:20   56.9    26    3.2   293      4.7   848.6    0.00       0    999.0
 129   23:30   57.3    25    3.3   293      4.7   848.6    0.00       0    999.0
 129   23:40   56.5    26    4.5   281      5.9   848.5    0.00       0    999.0
 129   23:50   56.3    27    4.6   276      6.4   848.4    0.00       0    999.0
 130    0:00   55.3    28    4.8   275      6.3   848.4    0.00       0    999.0
 130    0:10   55.9    27    4.7   290      6.9   848.4    0.00       0    999.0
 130    0:20   55.9    28    3.9   295      6.3   848.5    0.00       0    999.0
 130    0:30   56.0    29    3.4   292      5.2   848.5    0.00       0    999.0
 130    0:40   55.0    28    4.1   280      5.9   848.5    0.00       0    999.0
 130    0:50   53.6    30    4.6   266      7.0   848.5    0.00       0    999.0
 130    1:00   54.0    29    4.6   263      6.4   848.5    0.00       0    999.0
 130    1:10   53.7    30    4.3   277      6.6   848.4    0.00       0    999.0
 130    1:20   52.8    32    2.5   289      4.4   848.4    0.00       0    999.0
 130    1:30   53.3    31    2.3   274      4.5   848.4    0.00       0    999.0
 130    1:40   52.2    32    4.4   270      6.1   848.5    0.00       0    999.0
 130    1:50   52.1    34    3.0   299      3.7   848.5    0.00       0    999.0
 130    2:00   52.2    33    2.6   301      3.6   848.5    0.00       0    999.0
 130    2:10   52.1    33    3.2   280      5.4   848.6    0.00       0    999.0
 130    2:20   51.0    34    5.0   272      5.6   848.6    0.00       0    999.0
 130    2:30   51.3    34    4.3   275      5.6   848.6    0.00       0    999.0
 130    2:40   51.4    34    4.1   282      6.4   848.6    0.00       0    999.0
 130    2:50   50.6    36    3.9   271      5.9   848.6    0.00       0    999.0
 130    3:00   51.0    35    3.3   275      5.3   848.7    0.00       0    999.0
 130    3:10   50.4    36    4.9   274      6.4   848.7    0.00       0    999.0
 130    3:20   50.4    36    4.4   273      5.6   848.7    0.00       0    999.0
 130    3:30   49.5    38    4.9   274      6.4   848.8    0.00       0    999.0
 130    3:40   50.2    36    3.9   285      5.8   848.7    0.00       0    999.0
 130    3:50   49.7    38    3.6   273      5.0   848.7    0.00       0    999.0
 130    4:00   48.8    40    4.5   267      6.1   848.7    0.00       0    999.0
 130    4:10   48.4    42    5.0   268      5.8   848.7    0.00       0    999.0
 130    4:20   48.7    40    4.4   269      5.6   848.7    0.00       0    999.0
 130    4:30   48.3    42    4.1   270      5.6   848.7    0.00       0    999.0
 130    4:40   48.3    42    4.4   270      5.6   848.7    0.00       1    999.0
 130    4:50   48.3    42    3.6   280      4.7   848.7    0.00       1    999.0
 130    5:00   48.5    42    2.8   273      4.7   848.7    0.00       4    999.0
 130    5:10   48.8    42    2.1   290      3.4   848.7    0.00      13    999.0
 130    5:20   48.8    43    1.5   290      3.5   848.7    0.00      31    999.0
 130    5:30   50.1    41    1.8   283      3.4   848.7    0.00      58    999.0

Return to Yerington, Nevada graphs page.


Western Regional Climate Center,wrcc@dri.edu